sensor_id;sensor_type;location;lat;lon;timestamp;P1;durP1;ratioP1;P2;durP2;ratioP2
71513;SDS011;59335;46.652;21.272;2024-03-02T00:02:24;11.03;;;5.63;;
71513;SDS011;59335;46.652;21.272;2024-03-02T00:05:27;11.50;;;5.50;;
71513;SDS011;59335;46.652;21.272;2024-03-02T00:08:31;11.32;;;6.32;;
71513;SDS011;59335;46.652;21.272;2024-03-02T00:11:34;10.43;;;5.85;;
71513;SDS011;59335;46.652;21.272;2024-03-02T00:14:38;12.65;;;5.85;;
71513;SDS011;59335;46.652;21.272;2024-03-02T00:17:41;11.63;;;5.33;;
71513;SDS011;59335;46.652;21.272;2024-03-02T00:20:44;11.18;;;5.72;;
71513;SDS011;59335;46.652;21.272;2024-03-02T00:23:47;10.02;;;5.78;;
71513;SDS011;59335;46.652;21.272;2024-03-02T00:26:51;10.65;;;5.60;;
71513;SDS011;59335;46.652;21.272;2024-03-02T00:29:54;13.20;;;5.80;;
71513;SDS011;59335;46.652;21.272;2024-03-02T00:32:59;12.00;;;5.63;;
71513;SDS011;59335;46.652;21.272;2024-03-02T00:36:03;10.52;;;5.60;;
71513;SDS011;59335;46.652;21.272;2024-03-02T00:39:06;9.90;;;5.70;;
71513;SDS011;59335;46.652;21.272;2024-03-02T00:42:10;10.98;;;5.30;;
71513;SDS011;59335;46.652;21.272;2024-03-02T00:45:14;10.70;;;5.55;;
71513;SDS011;59335;46.652;21.272;2024-03-02T00:48:18;11.13;;;5.47;;
71513;SDS011;59335;46.652;21.272;2024-03-02T00:51:24;13.13;;;5.75;;
71513;SDS011;59335;46.652;21.272;2024-03-02T00:54:27;12.75;;;5.70;;
71513;SDS011;59335;46.652;21.272;2024-03-02T00:57:32;12.05;;;5.70;;
71513;SDS011;59335;46.652;21.272;2024-03-02T01:00:37;10.52;;;5.65;;
71513;SDS011;59335;46.652;21.272;2024-03-02T01:03:40;11.57;;;5.97;;
71513;SDS011;59335;46.652;21.272;2024-03-02T01:06:44;11.68;;;5.60;;
71513;SDS011;59335;46.652;21.272;2024-03-02T01:09:47;11.95;;;5.82;;
71513;SDS011;59335;46.652;21.272;2024-03-02T01:12:49;10.95;;;5.40;;
71513;SDS011;59335;46.652;21.272;2024-03-02T01:15:52;11.52;;;5.63;;
71513;SDS011;59335;46.652;21.272;2024-03-02T01:18:55;9.80;;;5.40;;
71513;SDS011;59335;46.652;21.272;2024-03-02T01:21:58;10.85;;;5.60;;
71513;SDS011;59335;46.652;21.272;2024-03-02T01:25:01;9.45;;;5.47;;
71513;SDS011;59335;46.652;21.272;2024-03-02T01:28:04;11.65;;;5.63;;
71513;SDS011;59335;46.652;21.272;2024-03-02T01:31:07;11.10;;;5.55;;
71513;SDS011;59335;46.652;21.272;2024-03-02T01:34:11;10.43;;;6.00;;
71513;SDS011;59335;46.652;21.272;2024-03-02T01:37:15;10.32;;;5.20;;
71513;SDS011;59335;46.652;21.272;2024-03-02T01:40:17;10.20;;;5.75;;
71513;SDS011;59335;46.652;21.272;2024-03-02T01:43:21;8.68;;;5.15;;
71513;SDS011;59335;46.652;21.272;2024-03-02T01:46:23;10.65;;;5.78;;
71513;SDS011;59335;46.652;21.272;2024-03-02T01:49:26;10.83;;;5.60;;
71513;SDS011;59335;46.652;21.272;2024-03-02T01:52:29;9.43;;;4.93;;
71513;SDS011;59335;46.652;21.272;2024-03-02T01:55:32;9.63;;;5.20;;
71513;SDS011;59335;46.652;21.272;2024-03-02T01:58:37;10.98;;;5.28;;
71513;SDS011;59335;46.652;21.272;2024-03-02T02:01:40;9.35;;;5.45;;
71513;SDS011;59335;46.652;21.272;2024-03-02T02:04:43;10.77;;;5.50;;
71513;SDS011;59335;46.652;21.272;2024-03-02T02:07:46;9.65;;;5.50;;
71513;SDS011;59335;46.652;21.272;2024-03-02T02:10:49;11.23;;;5.35;;
71513;SDS011;59335;46.652;21.272;2024-03-02T02:13:51;9.77;;;5.20;;
71513;SDS011;59335;46.652;21.272;2024-03-02T02:16:54;10.38;;;5.70;;
71513;SDS011;59335;46.652;21.272;2024-03-02T02:19:57;11.20;;;5.30;;
71513;SDS011;59335;46.652;21.272;2024-03-02T02:26:04;8.32;;;4.90;;
71513;SDS011;59335;46.652;21.272;2024-03-02T02:29:07;10.90;;;5.25;;
71513;SDS011;59335;46.652;21.272;2024-03-02T02:32:09;10.30;;;5.13;;
71513;SDS011;59335;46.652;21.272;2024-03-02T02:35:13;8.80;;;4.97;;
71513;SDS011;59335;46.652;21.272;2024-03-02T02:38:16;8.75;;;5.20;;
71513;SDS011;59335;46.652;21.272;2024-03-02T02:41:19;9.88;;;5.22;;
71513;SDS011;59335;46.652;21.272;2024-03-02T02:44:22;9.00;;;4.85;;
71513;SDS011;59335;46.652;21.272;2024-03-02T02:47:25;9.75;;;5.20;;
71513;SDS011;59335;46.652;21.272;2024-03-02T02:50:28;7.87;;;5.00;;
71513;SDS011;59335;46.652;21.272;2024-03-02T02:53:32;9.90;;;5.15;;
71513;SDS011;59335;46.652;21.272;2024-03-02T02:56:35;8.90;;;5.32;;
71513;SDS011;59335;46.652;21.272;2024-03-02T02:59:38;8.35;;;4.70;;
71513;SDS011;59335;46.652;21.272;2024-03-02T03:02:40;9.23;;;5.20;;
71513;SDS011;59335;46.652;21.272;2024-03-02T03:05:45;8.80;;;4.87;;
71513;SDS011;59335;46.652;21.272;2024-03-02T03:08:48;9.88;;;4.97;;
71513;SDS011;59335;46.652;21.272;2024-03-02T03:11:51;11.65;;;5.43;;
71513;SDS011;59335;46.652;21.272;2024-03-02T03:14:54;7.97;;;4.75;;
71513;SDS011;59335;46.652;21.272;2024-03-02T03:17:57;8.77;;;4.57;;
71513;SDS011;59335;46.652;21.272;2024-03-02T03:21:00;8.03;;;4.80;;
71513;SDS011;59335;46.652;21.272;2024-03-02T03:24:03;9.73;;;4.65;;
71513;SDS011;59335;46.652;21.272;2024-03-02T03:27:07;8.73;;;5.38;;
71513;SDS011;59335;46.652;21.272;2024-03-02T03:30:10;8.40;;;4.78;;
71513;SDS011;59335;46.652;21.272;2024-03-02T03:33:13;10.40;;;4.60;;
71513;SDS011;59335;46.652;21.272;2024-03-02T03:36:16;8.37;;;4.40;;
71513;SDS011;59335;46.652;21.272;2024-03-02T03:39:19;10.60;;;5.07;;
71513;SDS011;59335;46.652;21.272;2024-03-02T03:42:21;8.85;;;5.15;;
71513;SDS011;59335;46.652;21.272;2024-03-02T03:45:24;8.82;;;4.60;;
71513;SDS011;59335;46.652;21.272;2024-03-02T03:48:29;9.50;;;4.82;;
71513;SDS011;59335;46.652;21.272;2024-03-02T03:51:33;8.40;;;4.67;;
71513;SDS011;59335;46.652;21.272;2024-03-02T03:54:36;8.32;;;4.45;;
71513;SDS011;59335;46.652;21.272;2024-03-02T03:57:41;9.25;;;4.93;;
71513;SDS011;59335;46.652;21.272;2024-03-02T04:00:43;9.93;;;4.70;;
71513;SDS011;59335;46.652;21.272;2024-03-02T04:03:46;9.73;;;5.10;;
71513;SDS011;59335;46.652;21.272;2024-03-02T04:06:49;8.63;;;4.60;;
71513;SDS011;59335;46.652;21.272;2024-03-02T04:09:52;9.30;;;4.50;;
71513;SDS011;59335;46.652;21.272;2024-03-02T04:12:55;7.28;;;4.40;;
71513;SDS011;59335;46.652;21.272;2024-03-02T04:16:00;8.98;;;4.72;;
71513;SDS011;59335;46.652;21.272;2024-03-02T04:19:03;8.05;;;4.53;;
71513;SDS011;59335;46.652;21.272;2024-03-02T04:22:06;8.20;;;4.60;;
71513;SDS011;59335;46.652;21.272;2024-03-02T04:25:22;8.07;;;4.45;;
71513;SDS011;59335;46.652;21.272;2024-03-02T04:28:25;8.60;;;4.40;;
71513;SDS011;59335;46.652;21.272;2024-03-02T04:31:28;7.35;;;4.28;;
71513;SDS011;59335;46.652;21.272;2024-03-02T04:34:31;7.97;;;4.03;;
71513;SDS011;59335;46.652;21.272;2024-03-02T04:37:34;7.90;;;4.47;;
71513;SDS011;59335;46.652;21.272;2024-03-02T04:40:37;7.68;;;4.30;;
71513;SDS011;59335;46.652;21.272;2024-03-02T04:43:39;8.60;;;4.65;;
71513;SDS011;59335;46.652;21.272;2024-03-02T04:46:42;9.02;;;4.63;;
71513;SDS011;59335;46.652;21.272;2024-03-02T04:49:45;7.22;;;4.10;;
71513;SDS011;59335;46.652;21.272;2024-03-02T04:52:50;7.37;;;4.23;;
71513;SDS011;59335;46.652;21.272;2024-03-02T04:55:53;7.95;;;4.13;;
71513;SDS011;59335;46.652;21.272;2024-03-02T04:58:56;7.50;;;4.13;;
71513;SDS011;59335;46.652;21.272;2024-03-02T05:01:59;7.93;;;4.25;;
71513;SDS011;59335;46.652;21.272;2024-03-02T05:05:02;7.25;;;4.50;;
71513;SDS011;59335;46.652;21.272;2024-03-02T05:08:06;8.53;;;4.17;;
71513;SDS011;59335;46.652;21.272;2024-03-02T05:11:09;8.02;;;4.35;;
71513;SDS011;59335;46.652;21.272;2024-03-02T05:14:30;9.55;;;4.47;;
71513;SDS011;59335;46.652;21.272;2024-03-02T05:17:33;9.20;;;4.47;;
71513;SDS011;59335;46.652;21.272;2024-03-02T05:20:36;9.65;;;4.30;;
71513;SDS011;59335;46.652;21.272;2024-03-02T05:23:39;8.87;;;4.70;;
71513;SDS011;59335;46.652;21.272;2024-03-02T05:26:42;9.60;;;4.55;;
71513;SDS011;59335;46.652;21.272;2024-03-02T05:29:45;7.68;;;4.30;;
71513;SDS011;59335;46.652;21.272;2024-03-02T05:32:47;7.40;;;4.10;;
71513;SDS011;59335;46.652;21.272;2024-03-02T05:35:51;7.38;;;4.07;;
71513;SDS011;59335;46.652;21.272;2024-03-02T05:38:54;7.67;;;3.90;;
71513;SDS011;59335;46.652;21.272;2024-03-02T05:41:56;7.03;;;3.85;;
71513;SDS011;59335;46.652;21.272;2024-03-02T05:44:59;8.05;;;3.80;;
71513;SDS011;59335;46.652;21.272;2024-03-02T05:48:02;9.38;;;4.38;;
71513;SDS011;59335;46.652;21.272;2024-03-02T05:51:06;7.97;;;4.30;;
71513;SDS011;59335;46.652;21.272;2024-03-02T05:54:09;11.00;;;4.70;;
71513;SDS011;59335;46.652;21.272;2024-03-02T05:57:12;7.25;;;3.88;;
71513;SDS011;59335;46.652;21.272;2024-03-02T06:00:28;6.95;;;4.20;;
71513;SDS011;59335;46.652;21.272;2024-03-02T06:03:33;7.57;;;4.22;;
71513;SDS011;59335;46.652;21.272;2024-03-02T06:06:36;7.63;;;4.40;;
71513;SDS011;59335;46.652;21.272;2024-03-02T06:09:40;7.50;;;4.03;;
71513;SDS011;59335;46.652;21.272;2024-03-02T06:12:43;7.18;;;4.07;;
71513;SDS011;59335;46.652;21.272;2024-03-02T06:15:46;8.70;;;4.00;;
71513;SDS011;59335;46.652;21.272;2024-03-02T06:18:49;7.03;;;4.03;;
71513;SDS011;59335;46.652;21.272;2024-03-02T06:21:51;7.10;;;3.97;;
71513;SDS011;59335;46.652;21.272;2024-03-02T06:24:55;6.77;;;4.00;;
71513;SDS011;59335;46.652;21.272;2024-03-02T06:27:57;6.93;;;4.10;;
71513;SDS011;59335;46.652;21.272;2024-03-02T06:31:01;9.52;;;4.43;;
71513;SDS011;59335;46.652;21.272;2024-03-02T06:34:05;8.32;;;4.18;;
71513;SDS011;59335;46.652;21.272;2024-03-02T06:37:07;7.70;;;4.40;;
71513;SDS011;59335;46.652;21.272;2024-03-02T06:40:10;9.17;;;5.07;;
71513;SDS011;59335;46.652;21.272;2024-03-02T06:43:13;7.65;;;4.30;;
71513;SDS011;59335;46.652;21.272;2024-03-02T06:46:17;8.00;;;4.03;;
71513;SDS011;59335;46.652;21.272;2024-03-02T06:49:20;8.13;;;4.30;;
71513;SDS011;59335;46.652;21.272;2024-03-02T06:52:22;8.45;;;4.45;;
71513;SDS011;59335;46.652;21.272;2024-03-02T06:55:26;8.17;;;4.50;;
71513;SDS011;59335;46.652;21.272;2024-03-02T06:58:29;8.75;;;4.53;;
71513;SDS011;59335;46.652;21.272;2024-03-02T07:01:32;8.80;;;4.45;;
71513;SDS011;59335;46.652;21.272;2024-03-02T07:04:34;9.07;;;4.35;;
71513;SDS011;59335;46.652;21.272;2024-03-02T07:07:37;7.43;;;4.30;;
71513;SDS011;59335;46.652;21.272;2024-03-02T07:10:40;7.70;;;4.27;;
71513;SDS011;59335;46.652;21.272;2024-03-02T07:13:42;7.68;;;4.45;;
71513;SDS011;59335;46.652;21.272;2024-03-02T07:16:46;7.75;;;4.50;;
71513;SDS011;59335;46.652;21.272;2024-03-02T07:19:49;7.22;;;4.32;;
71513;SDS011;59335;46.652;21.272;2024-03-02T07:22:52;8.00;;;4.35;;
71513;SDS011;59335;46.652;21.272;2024-03-02T07:25:54;8.87;;;4.23;;
71513;SDS011;59335;46.652;21.272;2024-03-02T07:29:01;8.55;;;4.60;;
71513;SDS011;59335;46.652;21.272;2024-03-02T07:32:04;9.77;;;4.88;;
71513;SDS011;59335;46.652;21.272;2024-03-02T07:35:08;7.90;;;4.28;;
71513;SDS011;59335;46.652;21.272;2024-03-02T07:38:11;8.75;;;4.47;;
71513;SDS011;59335;46.652;21.272;2024-03-02T07:41:14;8.30;;;4.57;;
71513;SDS011;59335;46.652;21.272;2024-03-02T07:44:18;7.57;;;4.22;;
71513;SDS011;59335;46.652;21.272;2024-03-02T07:47:21;7.40;;;4.22;;
71513;SDS011;59335;46.652;21.272;2024-03-02T07:50:24;7.43;;;4.32;;
71513;SDS011;59335;46.652;21.272;2024-03-02T07:53:27;8.90;;;4.80;;
71513;SDS011;59335;46.652;21.272;2024-03-02T07:56:32;8.03;;;4.30;;
71513;SDS011;59335;46.652;21.272;2024-03-02T07:59:35;7.80;;;4.00;;
71513;SDS011;59335;46.652;21.272;2024-03-02T08:02:38;8.63;;;4.45;;
71513;SDS011;59335;46.652;21.272;2024-03-02T08:05:44;7.85;;;4.38;;
71513;SDS011;59335;46.652;21.272;2024-03-02T08:08:47;8.05;;;4.15;;
71513;SDS011;59335;46.652;21.272;2024-03-02T08:11:50;7.43;;;4.13;;
71513;SDS011;59335;46.652;21.272;2024-03-02T08:14:52;7.93;;;4.57;;
71513;SDS011;59335;46.652;21.272;2024-03-02T08:17:55;7.50;;;4.07;;
71513;SDS011;59335;46.652;21.272;2024-03-02T08:20:59;8.27;;;4.57;;
71513;SDS011;59335;46.652;21.272;2024-03-02T08:24:02;7.57;;;4.53;;
71513;SDS011;59335;46.652;21.272;2024-03-02T08:27:08;7.57;;;4.10;;
71513;SDS011;59335;46.652;21.272;2024-03-02T08:30:12;7.70;;;4.45;;
71513;SDS011;59335;46.652;21.272;2024-03-02T08:33:15;7.47;;;4.43;;
71513;SDS011;59335;46.652;21.272;2024-03-02T08:36:18;7.57;;;4.35;;
71513;SDS011;59335;46.652;21.272;2024-03-02T08:39:21;7.93;;;4.43;;
71513;SDS011;59335;46.652;21.272;2024-03-02T08:42:24;7.60;;;4.23;;
71513;SDS011;59335;46.652;21.272;2024-03-02T08:45:26;7.63;;;4.40;;
71513;SDS011;59335;46.652;21.272;2024-03-02T08:48:29;8.68;;;5.03;;
71513;SDS011;59335;46.652;21.272;2024-03-02T08:51:33;7.93;;;4.25;;
71513;SDS011;59335;46.652;21.272;2024-03-02T08:54:35;9.27;;;4.90;;
71513;SDS011;59335;46.652;21.272;2024-03-02T08:57:39;7.33;;;4.30;;
71513;SDS011;59335;46.652;21.272;2024-03-02T09:00:44;7.55;;;4.10;;
71513;SDS011;59335;46.652;21.272;2024-03-02T09:03:48;7.68;;;4.30;;
71513;SDS011;59335;46.652;21.272;2024-03-02T09:06:54;8.15;;;4.43;;
71513;SDS011;59335;46.652;21.272;2024-03-02T09:09:57;8.80;;;4.82;;
71513;SDS011;59335;46.652;21.272;2024-03-02T09:13:00;9.57;;;5.00;;
71513;SDS011;59335;46.652;21.272;2024-03-02T09:16:13;7.78;;;4.63;;
71513;SDS011;59335;46.652;21.272;2024-03-02T09:19:16;10.30;;;5.03;;
71513;SDS011;59335;46.652;21.272;2024-03-02T09:22:21;8.48;;;4.68;;
71513;SDS011;59335;46.652;21.272;2024-03-02T09:25:24;11.75;;;5.00;;
71513;SDS011;59335;46.652;21.272;2024-03-02T09:28:28;9.87;;;4.90;;
71513;SDS011;59335;46.652;21.272;2024-03-02T09:31:30;12.07;;;5.25;;
71513;SDS011;59335;46.652;21.272;2024-03-02T09:34:33;9.52;;;4.80;;
71513;SDS011;59335;46.652;21.272;2024-03-02T09:37:36;10.43;;;4.90;;
71513;SDS011;59335;46.652;21.272;2024-03-02T09:40:40;9.45;;;5.07;;
71513;SDS011;59335;46.652;21.272;2024-03-02T09:43:43;9.83;;;4.67;;
71513;SDS011;59335;46.652;21.272;2024-03-02T09:46:51;10.20;;;5.30;;
71513;SDS011;59335;46.652;21.272;2024-03-02T09:49:54;9.05;;;5.20;;
71513;SDS011;59335;46.652;21.272;2024-03-02T09:52:57;9.32;;;4.90;;
71513;SDS011;59335;46.652;21.272;2024-03-02T09:56:01;9.93;;;4.80;;
71513;SDS011;59335;46.652;21.272;2024-03-02T09:59:04;12.80;;;5.17;;
71513;SDS011;59335;46.652;21.272;2024-03-02T10:02:07;8.48;;;5.05;;
71513;SDS011;59335;46.652;21.272;2024-03-02T10:05:10;8.70;;;4.90;;
71513;SDS011;59335;46.652;21.272;2024-03-02T10:08:15;8.20;;;4.68;;
71513;SDS011;59335;46.652;21.272;2024-03-02T10:11:31;10.55;;;5.00;;
71513;SDS011;59335;46.652;21.272;2024-03-02T10:14:35;9.33;;;5.00;;
71513;SDS011;59335;46.652;21.272;2024-03-02T10:17:38;9.50;;;4.93;;
71513;SDS011;59335;46.652;21.272;2024-03-02T10:20:42;9.95;;;5.10;;
71513;SDS011;59335;46.652;21.272;2024-03-02T10:23:44;8.50;;;5.15;;
71513;SDS011;59335;46.652;21.272;2024-03-02T10:26:48;9.85;;;5.25;;
71513;SDS011;59335;46.652;21.272;2024-03-02T10:29:51;9.10;;;5.17;;
71513;SDS011;59335;46.652;21.272;2024-03-02T10:32:54;9.57;;;4.65;;
71513;SDS011;59335;46.652;21.272;2024-03-02T10:35:58;10.73;;;5.32;;
71513;SDS011;59335;46.652;21.272;2024-03-02T10:39:02;9.32;;;4.70;;
71513;SDS011;59335;46.652;21.272;2024-03-02T10:42:06;10.82;;;5.32;;
71513;SDS011;59335;46.652;21.272;2024-03-02T10:45:09;10.40;;;4.90;;
71513;SDS011;59335;46.652;21.272;2024-03-02T10:48:14;8.85;;;5.10;;
71513;SDS011;59335;46.652;21.272;2024-03-02T10:51:17;8.45;;;4.72;;
71513;SDS011;59335;46.652;21.272;2024-03-02T10:54:20;8.25;;;4.70;;
71513;SDS011;59335;46.652;21.272;2024-03-02T10:57:28;9.13;;;5.35;;
71513;SDS011;59335;46.652;21.272;2024-03-02T11:00:39;9.60;;;5.40;;
71513;SDS011;59335;46.652;21.272;2024-03-02T11:03:44;9.05;;;5.53;;
71513;SDS011;59335;46.652;21.272;2024-03-02T11:06:50;10.68;;;5.38;;
71513;SDS011;59335;46.652;21.272;2024-03-02T11:09:54;10.35;;;5.30;;
71513;SDS011;59335;46.652;21.272;2024-03-02T11:13:02;10.20;;;5.30;;
71513;SDS011;59335;46.652;21.272;2024-03-02T11:16:16;9.63;;;4.70;;
71513;SDS011;59335;46.652;21.272;2024-03-02T11:19:44;11.75;;;5.63;;
71513;SDS011;59335;46.652;21.272;2024-03-02T11:22:48;9.77;;;5.00;;
71513;SDS011;59335;46.652;21.272;2024-03-02T11:25:51;9.50;;;4.90;;
71513;SDS011;59335;46.652;21.272;2024-03-02T11:28:54;8.85;;;4.95;;
71513;SDS011;59335;46.652;21.272;2024-03-02T11:31:58;8.93;;;4.63;;
71513;SDS011;59335;46.652;21.272;2024-03-02T11:35:05;8.13;;;4.72;;
71513;SDS011;59335;46.652;21.272;2024-03-02T11:38:09;9.77;;;4.95;;
71513;SDS011;59335;46.652;21.272;2024-03-02T11:41:12;9.27;;;5.10;;
71513;SDS011;59335;46.652;21.272;2024-03-02T11:44:16;9.05;;;5.05;;
71513;SDS011;59335;46.652;21.272;2024-03-02T11:47:20;8.57;;;4.93;;
71513;SDS011;59335;46.652;21.272;2024-03-02T11:53:44;10.00;;;5.20;;
71513;SDS011;59335;46.652;21.272;2024-03-02T11:56:49;9.82;;;5.00;;
71513;SDS011;59335;46.652;21.272;2024-03-02T11:59:51;11.00;;;5.18;;
71513;SDS011;59335;46.652;21.272;2024-03-02T12:03:04;8.90;;;5.00;;
71513;SDS011;59335;46.652;21.272;2024-03-02T12:06:08;8.45;;;4.85;;
71513;SDS011;59335;46.652;21.272;2024-03-02T12:09:11;8.20;;;4.80;;
71513;SDS011;59335;46.652;21.272;2024-03-02T12:12:17;9.02;;;4.97;;
71513;SDS011;59335;46.652;21.272;2024-03-02T12:15:25;9.65;;;4.97;;
71513;SDS011;59335;46.652;21.272;2024-03-02T12:18:29;9.50;;;5.40;;
71513;SDS011;59335;46.652;21.272;2024-03-02T12:21:31;9.05;;;5.07;;
71513;SDS011;59335;46.652;21.272;2024-03-02T12:24:35;9.63;;;5.13;;
71513;SDS011;59335;46.652;21.272;2024-03-02T12:27:39;8.68;;;4.55;;
71513;SDS011;59335;46.652;21.272;2024-03-02T12:30:42;10.30;;;5.72;;
71513;SDS011;59335;46.652;21.272;2024-03-02T12:33:46;10.53;;;5.43;;
71513;SDS011;59335;46.652;21.272;2024-03-02T12:36:49;9.15;;;5.82;;
71513;SDS011;59335;46.652;21.272;2024-03-02T12:39:55;8.50;;;5.13;;
71513;SDS011;59335;46.652;21.272;2024-03-02T12:42:58;11.25;;;5.18;;
71513;SDS011;59335;46.652;21.272;2024-03-02T12:46:01;10.25;;;5.60;;
71513;SDS011;59335;46.652;21.272;2024-03-02T12:49:07;9.37;;;5.30;;
71513;SDS011;59335;46.652;21.272;2024-03-02T12:52:12;10.07;;;5.82;;
71513;SDS011;59335;46.652;21.272;2024-03-02T12:55:15;9.13;;;5.63;;
71513;SDS011;59335;46.652;21.272;2024-03-02T12:58:21;10.13;;;5.78;;
71513;SDS011;59335;46.652;21.272;2024-03-02T13:01:25;9.75;;;5.45;;
71513;SDS011;59335;46.652;21.272;2024-03-02T13:04:31;9.57;;;5.20;;
71513;SDS011;59335;46.652;21.272;2024-03-02T13:07:34;9.00;;;5.50;;
71513;SDS011;59335;46.652;21.272;2024-03-02T13:10:38;9.00;;;5.10;;
71513;SDS011;59335;46.652;21.272;2024-03-02T13:13:41;10.75;;;5.88;;
71513;SDS011;59335;46.652;21.272;2024-03-02T13:16:44;10.50;;;5.15;;
71513;SDS011;59335;46.652;21.272;2024-03-02T13:19:56;11.30;;;5.63;;
71513;SDS011;59335;46.652;21.272;2024-03-02T13:23:00;9.50;;;5.93;;
71513;SDS011;59335;46.652;21.272;2024-03-02T13:26:03;9.18;;;5.30;;
71513;SDS011;59335;46.652;21.272;2024-03-02T13:29:07;11.10;;;6.13;;
71513;SDS011;59335;46.652;21.272;2024-03-02T13:32:10;10.95;;;5.88;;
71513;SDS011;59335;46.652;21.272;2024-03-02T13:35:13;10.07;;;5.80;;
71513;SDS011;59335;46.652;21.272;2024-03-02T13:38:17;10.38;;;5.72;;
71513;SDS011;59335;46.652;21.272;2024-03-02T13:41:23;10.85;;;6.03;;
71513;SDS011;59335;46.652;21.272;2024-03-02T13:44:26;10.30;;;5.32;;
71513;SDS011;59335;46.652;21.272;2024-03-02T13:47:29;10.30;;;5.90;;
71513;SDS011;59335;46.652;21.272;2024-03-02T13:50:32;9.43;;;5.63;;
71513;SDS011;59335;46.652;21.272;2024-03-02T13:53:34;9.98;;;5.97;;
71513;SDS011;59335;46.652;21.272;2024-03-02T13:56:39;10.48;;;5.53;;
71513;SDS011;59335;46.652;21.272;2024-03-02T13:59:43;10.93;;;5.55;;
71513;SDS011;59335;46.652;21.272;2024-03-02T14:02:46;9.60;;;5.60;;
71513;SDS011;59335;46.652;21.272;2024-03-02T14:05:49;9.87;;;5.77;;
71513;SDS011;59335;46.652;21.272;2024-03-02T14:08:53;9.98;;;5.53;;
71513;SDS011;59335;46.652;21.272;2024-03-02T14:11:56;10.88;;;5.88;;
71513;SDS011;59335;46.652;21.272;2024-03-02T14:15:00;9.95;;;5.72;;
71513;SDS011;59335;46.652;21.272;2024-03-02T14:18:05;9.32;;;5.68;;
71513;SDS011;59335;46.652;21.272;2024-03-02T14:21:08;9.80;;;5.60;;
71513;SDS011;59335;46.652;21.272;2024-03-02T14:24:11;9.70;;;6.05;;
71513;SDS011;59335;46.652;21.272;2024-03-02T14:27:14;11.93;;;6.22;;
71513;SDS011;59335;46.652;21.272;2024-03-02T14:30:33;10.02;;;5.55;;
71513;SDS011;59335;46.652;21.272;2024-03-02T14:33:37;9.25;;;5.65;;
71513;SDS011;59335;46.652;21.272;2024-03-02T14:36:41;9.40;;;5.40;;
71513;SDS011;59335;46.652;21.272;2024-03-02T14:39:46;12.18;;;5.32;;
71513;SDS011;59335;46.652;21.272;2024-03-02T14:42:49;9.82;;;5.63;;
71513;SDS011;59335;46.652;21.272;2024-03-02T14:46:01;10.25;;;5.53;;
71513;SDS011;59335;46.652;21.272;2024-03-02T14:49:05;8.63;;;5.65;;
71513;SDS011;59335;46.652;21.272;2024-03-02T14:52:08;8.57;;;5.10;;
71513;SDS011;59335;46.652;21.272;2024-03-02T14:55:11;9.63;;;5.47;;
71513;SDS011;59335;46.652;21.272;2024-03-02T14:58:17;10.20;;;5.47;;
71513;SDS011;59335;46.652;21.272;2024-03-02T15:01:20;9.20;;;5.53;;
71513;SDS011;59335;46.652;21.272;2024-03-02T15:04:29;9.23;;;5.20;;
71513;SDS011;59335;46.652;21.272;2024-03-02T15:07:32;9.67;;;5.80;;
71513;SDS011;59335;46.652;21.272;2024-03-02T15:10:34;10.13;;;5.30;;
71513;SDS011;59335;46.652;21.272;2024-03-02T15:13:38;10.65;;;5.70;;
71513;SDS011;59335;46.652;21.272;2024-03-02T15:16:41;9.50;;;5.60;;
71513;SDS011;59335;46.652;21.272;2024-03-02T15:19:44;9.77;;;5.88;;
71513;SDS011;59335;46.652;21.272;2024-03-02T15:22:48;9.97;;;5.57;;
71513;SDS011;59335;46.652;21.272;2024-03-02T15:25:51;10.00;;;5.40;;
71513;SDS011;59335;46.652;21.272;2024-03-02T15:28:54;9.63;;;5.63;;
71513;SDS011;59335;46.652;21.272;2024-03-02T15:31:58;10.35;;;5.47;;
71513;SDS011;59335;46.652;21.272;2024-03-02T15:35:01;8.88;;;5.30;;
71513;SDS011;59335;46.652;21.272;2024-03-02T15:38:05;10.57;;;5.43;;
71513;SDS011;59335;46.652;21.272;2024-03-02T15:41:26;10.02;;;5.20;;
71513;SDS011;59335;46.652;21.272;2024-03-02T15:44:29;9.15;;;5.50;;
71513;SDS011;59335;46.652;21.272;2024-03-02T15:47:36;8.88;;;5.30;;
71513;SDS011;59335;46.652;21.272;2024-03-02T15:50:39;8.30;;;5.05;;
71513;SDS011;59335;46.652;21.272;2024-03-02T15:53:42;9.33;;;5.20;;
71513;SDS011;59335;46.652;21.272;2024-03-02T15:56:45;9.38;;;5.50;;
71513;SDS011;59335;46.652;21.272;2024-03-02T15:59:48;9.23;;;5.07;;
71513;SDS011;59335;46.652;21.272;2024-03-02T16:02:52;8.68;;;4.97;;
71513;SDS011;59335;46.652;21.272;2024-03-02T16:05:56;10.38;;;5.53;;
71513;SDS011;59335;46.652;21.272;2024-03-02T16:08:59;10.63;;;5.50;;
71513;SDS011;59335;46.652;21.272;2024-03-02T16:12:05;9.32;;;5.25;;
71513;SDS011;59335;46.652;21.272;2024-03-02T16:15:09;9.45;;;5.40;;
71513;SDS011;59335;46.652;21.272;2024-03-02T16:18:15;9.00;;;4.93;;
71513;SDS011;59335;46.652;21.272;2024-03-02T16:21:20;8.40;;;5.07;;
71513;SDS011;59335;46.652;21.272;2024-03-02T16:24:28;9.93;;;5.17;;
71513;SDS011;59335;46.652;21.272;2024-03-02T16:27:32;10.20;;;5.35;;
71513;SDS011;59335;46.652;21.272;2024-03-02T16:30:34;8.77;;;5.63;;
71513;SDS011;59335;46.652;21.272;2024-03-02T16:33:37;9.88;;;5.50;;
71513;SDS011;59335;46.652;21.272;2024-03-02T16:36:42;9.98;;;5.65;;
71513;SDS011;59335;46.652;21.272;2024-03-02T16:39:52;9.43;;;5.00;;
71513;SDS011;59335;46.652;21.272;2024-03-02T16:43:03;9.95;;;5.28;;
71513;SDS011;59335;46.652;21.272;2024-03-02T16:46:06;8.63;;;4.90;;
71513;SDS011;59335;46.652;21.272;2024-03-02T16:49:09;9.15;;;4.85;;
71513;SDS011;59335;46.652;21.272;2024-03-02T16:52:12;9.52;;;5.15;;
71513;SDS011;59335;46.652;21.272;2024-03-02T16:55:17;9.13;;;5.10;;
71513;SDS011;59335;46.652;21.272;2024-03-02T16:58:21;9.70;;;5.00;;
71513;SDS011;59335;46.652;21.272;2024-03-02T17:01:25;8.13;;;4.97;;
71513;SDS011;59335;46.652;21.272;2024-03-02T17:04:28;9.27;;;4.72;;
71513;SDS011;59335;46.652;21.272;2024-03-02T17:07:31;8.77;;;5.07;;
71513;SDS011;59335;46.652;21.272;2024-03-02T17:10:34;8.60;;;4.90;;
71513;SDS011;59335;46.652;21.272;2024-03-02T17:13:37;9.93;;;5.28;;
71513;SDS011;59335;46.652;21.272;2024-03-02T17:16:39;8.20;;;4.95;;
71513;SDS011;59335;46.652;21.272;2024-03-02T17:19:43;8.32;;;4.90;;
71513;SDS011;59335;46.652;21.272;2024-03-02T17:22:46;9.07;;;5.00;;
71513;SDS011;59335;46.652;21.272;2024-03-02T17:25:49;8.30;;;4.70;;
71513;SDS011;59335;46.652;21.272;2024-03-02T17:28:52;9.48;;;5.28;;
71513;SDS011;59335;46.652;21.272;2024-03-02T17:31:55;8.93;;;5.22;;
71513;SDS011;59335;46.652;21.272;2024-03-02T17:34:58;8.18;;;5.28;;
71513;SDS011;59335;46.652;21.272;2024-03-02T17:38:02;8.88;;;4.95;;
71513;SDS011;59335;46.652;21.272;2024-03-02T17:41:04;8.77;;;5.10;;
71513;SDS011;59335;46.652;21.272;2024-03-02T17:44:07;9.43;;;5.20;;
71513;SDS011;59335;46.652;21.272;2024-03-02T17:47:12;8.55;;;4.70;;
71513;SDS011;59335;46.652;21.272;2024-03-02T17:50:15;8.15;;;5.03;;
71513;SDS011;59335;46.652;21.272;2024-03-02T17:53:18;9.15;;;5.30;;
71513;SDS011;59335;46.652;21.272;2024-03-02T17:56:21;8.40;;;5.00;;
71513;SDS011;59335;46.652;21.272;2024-03-02T17:59:24;8.65;;;4.95;;
71513;SDS011;59335;46.652;21.272;2024-03-02T18:02:30;9.23;;;4.93;;
71513;SDS011;59335;46.652;21.272;2024-03-02T18:05:36;8.65;;;5.15;;
71513;SDS011;59335;46.652;21.272;2024-03-02T18:08:39;10.20;;;5.00;;
71513;SDS011;59335;46.652;21.272;2024-03-02T18:11:41;9.40;;;5.30;;
71513;SDS011;59335;46.652;21.272;2024-03-02T18:14:47;10.65;;;5.22;;